• Join FlightAware (Why Join?)
  • Login
  • US Flag 
06:24AM EDT


 

Airport Tracker/Info


-or-


 

Live Flight TrackerFlight Track Log ✈ SWA3143 ✈ 02-Nov-2013 ✈ KMKE - KMSP

Flight Track Log - Related Links

Times and Time Zones

All times are in EDT time to prevent confusion due to time zone crossing. See the SWA3143 flight status page for this flight to view local times or setup timezone preferences in your user account.

Time Position Orientation Groundspeed Altitude Reporting Facility
EDT Latitude Longitude Course Direction KTS MPH feet Rate Location/Type
10:12AM 42.9500 -87.9000 360° North 154 177 2,100  Level KMKE
10:12AM 42.9667 -87.9000 360° North 156 180 3,300 2,100 Climbing KMKE
10:13AM 42.9928 -87.9186 332° Northwest 200 230 4,400 1,800 Climbing Chicago Center
10:14AM 43.0508 -87.9747 325° Northwest 248 285 6,400 3,840 Climbing Chicago Center
10:15AM 43.1158 -88.0556 318° Northwest 262 302 12,300 4,380 Climbing Chicago Center
10:16AM 43.1747 -88.1372 315° West 301 346 15,400 3,300 Climbing Chicago Center
10:17AM 43.2014 -88.2661 286° West 345 397 19,200 3,540 Climbing Chicago Center
10:18AM 43.2281 -88.4031 285° West 363 418 22,700 1,800 Climbing Chicago Center
10:19AM 43.2547 -88.5436 285° West 373 429 23,000 1,080 Climbing Chicago Center
10:20AM 43.2836 -88.6858 286° West 380 437 25,000 2,640 Climbing Chicago Center
10:21AM 43.3133 -88.8294 286° West 387 445 28,500 2,400 Climbing Chicago Center
10:22AM 43.3417 -88.9686 286° West 378 435 30,000 720 Climbing Chicago Center
10:23AM 43.3897 -89.0986 297° West 387 445 30,000  Level Chicago Center
10:24AM 43.4761 -89.2017 319° Northwest 407 468 30,000  Level Chicago Center
10:25AM 43.5775 -89.3294 318° Northwest 410 472 30,000  Level Chicago Center
10:26AM 43.6628 -89.4342 318° Northwest 410 472 30,000  Level Chicago Center
10:27AM 43.7472 -89.5406 318° Northwest 411 473 30,000  Level Chicago Center
10:28AM 43.8314 -89.6472 318° Northwest 411 473 30,000  Level Chicago Center
10:29AM 43.9150 -89.7531 318° Northwest 409 471 30,000  Level Chicago Center
10:30AM 43.9981 -89.8608 317° Northwest 409 471 30,000  Level Chicago Center
10:31AM 44.0675 -89.9842 308° West 431 496 30,000  Level Chicago Center
10:32AM 44.1286 -90.1508 297° West 408 470 30,000  Level Chicago Center
10:33AM 44.1792 -90.2911 297° West 407 468 30,000  Level Chicago Center
10:34AM 44.2275 -90.4236 297° West 408 470 30,000  Level Chicago Center
10:35AM 44.2767 -90.5633 296° West 407 468 30,000  Level Chicago Center
10:36AM 44.3267 -90.7036 297° West 407 468 30,000  Level Chicago Center
10:37AM 44.3858 -90.8714 296° West 406 467 30,000  Level Chicago Center
10:38AM 44.4342 -91.0097 296° West 403 464 30,000  Level Chicago Center
10:39AM 44.4825 -91.1486 296° West 401 461 30,000  Level Chicago Center
10:40AM 44.5308 -91.2867 296° West 400 460 30,000 -300 Level Chicago Center
10:41AM 44.5789 -91.4247 296° West 398 458 29,500 -2,160 Descending Chicago Center
10:43AM 44.6525 -91.6419 296° West 394 453 24,600 -3,120 Descending Minneapolis Center
10:44AM 44.6969 -91.7731 296° West 384 442 21,800 -2,700 Descending Minneapolis Center
10:45AM 44.7400 -91.8992 296° West 373 429 19,100 -2,640 Descending Minneapolis Center
10:46AM 44.7831 -92.0217 296° West 355 409 16,400 -2,640 Descending Minneapolis Center
10:47AM 44.8228 -92.1392 296° West 337 388 13,700 -2,400 Descending Minneapolis Center
10:48AM 44.8486 -92.2831 284° West 329 379 11,500 -1,620 Descending Minneapolis Center
10:49AM 44.8319 -92.4114 260° West 332 382 10,500 -1,020 Descending Minneapolis Center
10:50AM 44.8175 -92.5169 259° West 280 322 9,500 -1,260 Descending Minneapolis Center
10:51AM 44.8047 -92.6183 260° West 265 305 8,000 -1,260 Descending Minneapolis Center
10:52AM 44.7908 -92.7175 259° West 260 299 7,000 -660 Descending Minneapolis Center
10:53AM 44.7789 -92.8075 259° West 239 275 6,700 -900 Descending Minneapolis Center
10:54AM 44.7675 -92.8911 259° West 222 255 5,200 -1,200 Descending Minneapolis Center
10:55AM 44.7792 -92.9847 280° West 208 239 4,300 -960 Descending Minneapolis Center
10:56AM 44.8058 -93.0456 302° West 185 213 3,300 -900 Descending Minneapolis Center
10:57AM 44.8308 -93.1031 302° West 176 203 2,500 -840 Descending Minneapolis Center
10:58AM 44.8511 -93.1497 302° West 142 163 1,700 -780 Descending Minneapolis Center
11:00AM 44.8667 -93.2167 270° West  Level FlightAware Approximate
11:07AM 44.8820 -93.2218 270° West  Level Estimated
11:08AM 44.8820 -93.2218 270° West  Level Estimated